トビリシ の空港の天気 - METARとTAF

トビリシ国際空港 ( UGTB / TBS ) - ジョージア トビリシ
飛行場実況気象(Metar)
観測時間10/16 10:30 GET (10/16 06:30 UTC)
風向・風速南南東 3m/s
視程10km以上
天気現象
少しの雲 雲底高度 700m
全天の8割程度の雲 雲底高度 790m
全天を覆う雲 雲底高度 980m
気温14℃
湿度72%
気圧1031hPa
METARUGTB 160630Z 16005KT 130V190 9999 FEW023 BKN026 OVC032 14/09 Q1031 NOSIG
過去の天気等 Google飛行場航空写真 Wunderground天気予報

過去48時間のMETAR

飛行場予報(TAF)
発表時間: 10/16 09:00 GET (10/16 05:00 UTC)
予報対象時間: 16日10時 GET ~ 17日10時 GET
風向・風速不定 1m/s
視程10km以上
全天の4割程度の雲 雲底高度 910m
全天を覆う雲 雲底高度 1520m
16日10時 GET ~ 16日14時 GET に一時的に
全天の8割程度の雲 雲底高度 610m
全天を覆う雲 雲底高度 910m
TAF UGTB 160500Z 1606/1706 VRB02KT 9999 SCT030 OVC050 TX19/1611Z TN13/1702Z
TEMPO 1606/1610 BKN020 OVC030